Time;durP1;ratioP1;P1;durP2;ratioP2;P2;SDS_P1;SDS_P2;PMS_P1;PMS_P2;Temp;Humidity;BMP_temperature;BMP_pressure;BME280_temperature;BME280_humidity;BME280_pressure;Samples;Min_cycle;Max_cycle;Signal;HPM_P1;HPM_P2
2021/07/19 00:00:27;;;;;;;5.05;3.90;;;;;;;20.57;63.86;100870.53;5081887;28;20424;-82
2021/07/19 00:02:56;;;;;;;9.30;4.03;;;;;;;20.55;64.16;100863.59;5083411;28;20049;-83
2021/07/19 00:05:26;;;;;;;7.32;4.40;;;;;;;20.55;64.39;100857.94;5073955;28;20057;-82
2021/07/19 00:07:55;;;;;;;6.50;4.13;;;;;;;20.55;64.79;100858.75;5082051;28;20049;-82
2021/07/19 00:10:23;;;;;;;7.65;3.97;;;;;;;20.58;64.89;100862.88;5082192;28;20048;-82
2021/07/19 00:12:51;;;;;;;9.40;4.57;;;;;;;20.56;64.85;100857.59;5081032;28;20052;-82
2021/07/19 00:15:20;;;;;;;6.60;3.92;;;;;;;20.58;64.94;100860.88;5083674;28;20075;-82
2021/07/19 00:17:49;;;;;;;6.70;4.50;;;;;;;20.51;64.99;100855.03;5083394;28;20052;-82
2021/07/19 00:20:18;;;;;;;6.43;4.30;;;;;;;20.46;65.18;100852.50;5085848;28;20049;-82
2021/07/19 00:22:46;;;;;;;8.65;4.53;;;;;;;20.43;65.36;100859.75;5087771;28;20484;-83
2021/07/19 00:25:17;;;;;;;7.78;4.68;;;;;;;20.40;65.48;100865.31;5085719;28;20064;-83
2021/07/19 00:27:48;;;;;;;9.18;4.90;;;;;;;20.33;65.62;100860.34;5086407;28;20053;-83
2021/07/19 00:30:16;;;;;;;6.65;4.50;;;;;;;20.24;65.97;100869.03;5081411;28;20049;-82
2021/07/19 00:32:44;;;;;;;7.40;4.40;;;;;;;20.28;65.83;100850.13;5084215;28;20060;-83
2021/07/19 00:35:12;;;;;;;8.82;4.82;;;;;;;20.20;65.70;100854.00;5084555;28;20059;-82
2021/07/19 00:37:40;;;;;;;8.05;5.03;;;;;;;20.07;66.46;100858.97;5086946;28;20052;-82
2021/07/19 00:40:10;;;;;;;10.35;5.03;;;;;;;19.96;66.72;100855.06;5106964;28;20059;-83
2021/07/19 00:42:40;;;;;;;8.93;5.22;;;;;;;19.89;67.03;100856.94;5107028;28;20048;-82
2021/07/19 00:45:13;;;;;;;8.85;5.35;;;;;;;19.86;67.49;100859.31;5107380;28;20048;-82
2021/07/19 00:47:42;;;;;;;10.32;5.65;;;;;;;19.85;67.46;100860.47;5108010;28;20500;-81
2021/07/19 00:50:13;;;;;;;10.13;5.32;;;;;;;19.81;67.42;100851.09;5109194;28;20052;-81
2021/07/19 00:52:41;;;;;;;8.15;5.07;;;;;;;19.77;67.42;100850.19;5108279;28;20062;-83
2021/07/19 00:55:11;;;;;;;8.88;4.43;;;;;;;19.70;67.59;100849.16;5108221;28;20054;-83
2021/07/19 00:57:41;;;;;;;6.35;4.72;;;;;;;19.63;67.74;100847.84;5107466;28;20063;-82
2021/07/19 01:00:17;;;;;;;8.15;5.07;;;;;;;19.57;67.91;100851.28;5109579;28;20044;-81
2021/07/19 01:02:52;;;;;;;6.45;4.97;;;;;;;19.51;67.82;100849.94;5104337;28;20508;-82
2021/07/19 01:05:19;;;;;;;7.13;5.28;;;;;;;19.42;68.23;100842.50;5102051;28;20052;-83
2021/07/19 01:07:54;;;;;;;7.72;5.20;;;;;;;19.38;68.31;100844.41;5103092;28;20051;-82
2021/07/19 01:10:22;;;;;;;10.13;5.38;;;;;;;19.35;68.54;100847.13;5107049;28;20044;-83
2021/07/19 01:12:53;;;;;;;6.47;5.10;;;;;;;19.20;68.94;100843.94;5105066;28;20052;-81
2021/07/19 01:15:21;;;;;;;10.25;5.75;;;;;;;19.19;69.19;100841.47;5102434;28;20056;-83
2021/07/19 01:17:51;;;;;;;13.02;5.95;;;;;;;19.12;69.19;100842.13;5105781;28;20046;-82
2021/07/19 01:20:20;;;;;;;;;;;;;;;19.05;69.22;100841.94;5108576;28;20047;-83
2021/07/19 01:23:33;;;;;;;11.05;5.68;;;;;;;19.06;69.12;100840.75;5107868;28;20373;-82
2021/07/19 01:26:26;;;;;;;8.35;5.10;;;;;;;19.00;69.34;100836.53;5048818;28;20058;-82
2021/07/19 01:28:56;;;;;;;8.80;5.88;;;;;;;18.96;69.64;100839.28;5096545;28;20052;-83
2021/07/19 01:31:26;;;;;;;7.88;5.18;;;;;;;18.90;69.75;100837.06;5107005;28;20059;-82
2021/07/19 01:33:56;;;;;;;;;;;;;;;18.81;69.87;100831.59;5108240;28;20387;-82
2021/07/19 01:36:25;;;;;;;;;;;;;;;18.73;70.21;100824.09;5106734;28;19920;-82
2021/07/19 01:38:53;;;;;;;8.63;5.80;;;;;;;18.72;70.24;100828.94;5107054;28;20341;-82
2021/07/19 01:41:21;;;;;;;10.53;6.63;;;;;;;18.71;70.40;100832.09;5106404;28;20054;-81
2021/07/19 01:43:52;;;;;;;8.85;5.65;;;;;;;18.70;70.52;100830.47;5107089;28;20048;-82
2021/07/19 01:46:21;;;;;;;8.98;5.60;;;;;;;18.77;70.20;100830.66;5106272;28;20473;-82
2021/07/19 01:48:52;;;;;;;11.85;5.70;;;;;;;18.73;70.14;100829.75;5106779;28;20056;-83
2021/07/19 01:51:20;;;;;;;8.55;5.40;;;;;;;18.72;69.97;100828.09;5107453;28;20052;-83
2021/07/19 01:53:52;;;;;;;11.23;5.25;;;;;;;18.71;69.95;100821.66;5106663;28;20052;-82
2021/07/19 01:56:20;;;;;;;7.32;5.13;;;;;;;18.69;70.05;100820.34;5106989;28;20059;-83
2021/07/19 01:58:48;;;;;;;6.97;4.95;;;;;;;18.63;69.89;100819.81;5105845;28;20397;-82
2021/07/19 02:01:18;;;;;;;7.93;5.53;;;;;;;18.59;70.27;100825.34;5105634;28;20075;-82
2021/07/19 02:03:47;;;;;;;8.25;5.15;;;;;;;18.55;70.03;100823.63;5106424;28;20052;-82
2021/07/19 02:06:15;;;;;;;11.82;5.70;;;;;;;18.51;70.34;100829.16;5102911;28;20499;-82
2021/07/19 02:08:44;;;;;;;8.73;5.15;;;;;;;18.49;70.23;100820.22;5088641;28;20055;-83
2021/07/19 02:11:12;;;;;;;9.30;5.45;;;;;;;18.43;70.43;100814.00;5087961;28;20127;-84
2021/07/19 02:13:45;;;;;;;9.63;5.40;;;;;;;18.43;70.21;100821.66;5106570;28;20055;-84
2021/07/19 02:16:14;;;;;;;7.85;5.75;;;;;;;18.41;70.16;100821.19;5107340;28;20052;-83
2021/07/19 02:18:47;;;;;;;10.52;5.55;;;;;;;18.43;70.13;100813.19;5106552;28;20047;-84
2021/07/19 02:21:19;;;;;;;10.07;5.72;;;;;;;18.41;70.38;100812.75;5107101;28;20055;-83
2021/07/19 02:23:50;;;;;;;9.40;5.40;;;;;;;18.36;70.36;100819.47;5106042;28;20055;-83
2021/07/19 02:26:20;;;;;;;10.35;6.13;;;;;;;18.31;70.69;100818.88;5106431;28;20048;-83
2021/07/19 02:28:49;;;;;;;;;;;;;;;18.21;71.07;100821.06;5106225;28;20058;-84
2021/07/19 02:31:21;;;;;;;10.48;6.70;;;;;;;18.20;71.43;100829.84;5104698;28;20271;-83
2021/07/19 02:33:50;;;;;;;10.32;6.00;;;;;;;18.23;71.58;100829.97;5106344;28;20058;-83
2021/07/19 02:36:20;;;;;;;7.88;5.50;;;;;;;18.26;71.90;100832.06;5105491;28;20397;-83
2021/07/19 02:38:48;;;;;;;8.70;5.50;;;;;;;18.29;71.24;100827.72;5104931;28;20051;-85
2021/07/19 02:41:17;;;;;;;8.98;5.40;;;;;;;18.32;71.47;100840.28;5105390;28;20055;-84
2021/07/19 02:43:46;;;;;;;7.45;5.43;;;;;;;18.37;71.42;100840.88;5105130;28;20063;-83
2021/07/19 02:46:14;;;;;;;7.03;5.03;;;;;;;18.44;71.38;100840.25;5104955;28;20058;-83
2021/07/19 02:48:47;;;;;;;10.48;5.90;;;;;;;18.51;71.06;100834.78;5105723;28;20074;-83
2021/07/19 02:51:14;;;;;;;7.45;4.70;;;;;;;18.56;71.15;100842.16;5105019;28;20058;-83
2021/07/19 02:53:46;;;;;;;7.55;4.72;;;;;;;18.63;71.08;100848.03;5104638;28;20055;-83
2021/07/19 02:56:13;;;;;;;8.10;5.78;;;;;;;18.69;70.33;100842.94;5104107;28;20048;-83
2021/07/19 02:58:41;;;;;;;6.60;4.82;;;;;;;18.76;70.01;100829.84;5104302;28;20056;-83
2021/07/19 03:01:12;;;;;;;8.77;5.05;;;;;;;18.81;70.00;100840.88;5101510;28;20156;-83
2021/07/19 03:03:40;;;;;;;8.13;5.15;;;;;;;18.84;69.49;100831.72;5097279;28;20052;-82
2021/07/19 03:06:10;;;;;;;11.02;6.35;;;;;;;18.89;69.12;100832.63;5097055;28;20052;-82
2021/07/19 03:08:39;;;;;;;9.18;4.82;;;;;;;18.91;69.10;100831.06;5096446;28;20048;-82
2021/07/19 03:11:13;;;;;;;6.22;4.85;;;;;;;18.94;68.95;100824.72;5097170;28;20052;-81
2021/07/19 03:13:50;;;;;;;6.88;5.20;;;;;;;18.94;68.57;100813.44;5096925;28;20055;-82
2021/07/19 03:16:19;;;;;;;7.40;5.50;;;;;;;18.90;68.78;100823.81;5096841;28;20063;-82
2021/07/19 03:18:48;;;;;;;9.77;5.32;;;;;;;18.80;68.79;100821.50;5096993;28;20504;-82
2021/07/19 03:21:17;;;;;;;8.38;5.72;;;;;;;18.82;69.05;100825.59;5096923;28;20040;-83
2021/07/19 03:23:45;;;;;;;;;;;;;;;18.80;69.04;100818.69;5097500;28;20040;-83
2021/07/19 03:26:15;;;;;;;8.57;5.43;;;;;;;18.81;68.89;100814.66;5098748;28;19920;-82
2021/07/19 03:28:45;;;;;;;8.93;5.68;;;;;;;18.78;69.16;100818.19;5098191;28;20469;-81
2021/07/19 03:31:13;;;;;;;8.55;6.22;;;;;;;18.75;69.46;100822.56;5097590;28;20055;-80
2021/07/19 03:33:43;;;;;;;9.15;5.88;;;;;;;18.76;69.68;100824.19;5097635;28;20048;-81
2021/07/19 03:36:11;;;;;;;8.93;5.57;;;;;;;18.77;69.36;100839.13;5097212;28;20055;-82
2021/07/19 03:38:43;;;;;;;9.40;6.15;;;;;;;18.79;69.32;100831.16;5097026;28;20044;-82
2021/07/19 03:41:13;;;;;;;7.82;6.13;;;;;;;18.81;69.55;100840.06;5097751;28;20055;-81
2021/07/19 03:43:43;;;;;;;9.93;6.03;;;;;;;18.85;69.29;100838.16;5097280;28;20056;-81
2021/07/19 03:46:11;;;;;;;8.65;5.82;;;;;;;18.90;69.02;100835.09;5097639;28;20044;-81
2021/07/19 03:48:39;;;;;;;8.25;5.82;;;;;;;18.95;69.02;100837.63;5097314;28;20055;-81
2021/07/19 03:51:07;;;;;;;9.90;7.03;;;;;;;18.93;69.04;100850.47;5098815;28;20067;-81
2021/07/19 03:53:35;;;;;;;8.07;6.20;;;;;;;18.97;68.95;100846.56;5097136;28;20051;-81
2021/07/19 03:56:03;;;;;;;10.23;6.57;;;;;;;19.03;69.10;100856.41;5101644;28;20052;-81
2021/07/19 03:58:31;;;;;;;10.07;6.40;;;;;;;19.05;69.03;100851.22;5101601;28;20048;-81
2021/07/19 04:01:01;;;;;;;10.23;5.95;;;;;;;19.04;69.14;100858.03;5101736;28;20052;-81
2021/07/19 04:03:33;;;;;;;9.50;6.22;;;;;;;19.12;69.21;100852.59;5101315;28;20057;-81
2021/07/19 04:06:02;;;;;;;8.88;6.30;;;;;;;19.20;68.53;100843.94;5101287;28;20059;-82
2021/07/19 04:08:34;;;;;;;9.90;5.93;;;;;;;19.24;68.29;100852.50;5101403;28;20443;-81
2021/07/19 04:11:02;;;;;;;7.63;5.65;;;;;;;19.34;67.67;100846.31;5101233;28;20048;-82
2021/07/19 04:13:31;;;;;;;10.02;6.35;;;;;;;19.38;67.81;100844.41;5101609;28;20048;-81
2021/07/19 04:16:00;;;;;;;7.60;6.13;;;;;;;19.39;67.82;100833.91;5100964;28;20474;-81
2021/07/19 04:18:27;;;;;;;8.98;6.40;;;;;;;19.39;67.47;100834.72;5101431;28;20067;-81
2021/07/19 04:20:56;;;;;;;8.90;6.32;;;;;;;19.45;67.54;100830.44;5101331;28;20062;-81
2021/07/19 04:23:24;;;;;;;10.48;6.75;;;;;;;19.49;67.53;100833.38;5100227;28;20052;-81
2021/07/19 04:25:52;;;;;;;10.23;5.97;;;;;;;19.51;67.69;100828.16;5100740;28;20052;-82
2021/07/19 04:28:20;;;;;;;8.20;6.43;;;;;;;19.56;67.57;100832.72;5101052;28;20059;-81
2021/07/19 04:30:49;;;;;;;8.60;6.07;;;;;;;19.58;67.30;100833.16;5101217;28;20056;-80
2021/07/19 04:33:19;;;;;;;8.77;6.13;;;;;;;19.63;66.93;100832.88;5100346;28;20059;-81
2021/07/19 04:35:48;;;;;;;9.68;5.88;;;;;;;19.64;67.07;100834.53;5099673;28;20044;-81
2021/07/19 04:38:17;;;;;;;9.20;5.95;;;;;;;19.75;67.04;100843.28;5099352;28;20065;-81
2021/07/19 04:40:46;;;;;;;11.68;6.63;;;;;;;19.83;66.25;100848.72;5099792;28;20461;-81
2021/07/19 04:43:15;;;;;;;9.07;6.55;;;;;;;19.85;66.04;100846.34;5100547;28;20063;-82
2021/07/19 04:45:43;;;;;;;8.33;6.47;;;;;;;19.94;66.36;100848.16;5099914;28;20127;-82
2021/07/19 04:48:10;;;;;;;9.23;6.30;;;;;;;20.00;65.54;100861.63;5099816;28;20473;-82
2021/07/19 04:50:39;;;;;;;9.77;5.97;;;;;;;20.08;65.45;100868.28;5098943;28;20047;-81
2021/07/19 04:53:09;;;;;;;7.97;6.40;;;;;;;20.12;65.36;100869.19;5099816;28;20401;-82
2021/07/19 04:55:38;;;;;;;7.88;5.93;;;;;;;20.16;64.71;100864.41;5099834;28;20059;-81
2021/07/19 04:58:07;;;;;;;;;;;;;;;20.20;64.47;100868.16;5100746;28;20477;-81
2021/07/19 05:00:35;;;;;;;9.50;5.88;;;;;;;20.20;64.41;100867.31;5100455;28;20296;-81
2021/07/19 05:03:04;;;;;;;10.53;6.30;;;;;;;20.33;64.45;100863.16;5100113;28;20048;-81
2021/07/19 05:05:34;;;;;;;11.20;7.20;;;;;;;20.45;63.23;100860.19;5099861;28;20063;-81
2021/07/19 05:08:08;;;;;;;8.93;6.70;;;;;;;20.51;62.37;100871.19;5099043;28;20059;-82
2021/07/19 05:10:36;;;;;;;7.85;5.90;;;;;;;20.58;62.67;100868.53;5099366;28;20059;-81
2021/07/19 05:13:05;;;;;;;7.35;5.85;;;;;;;20.62;62.46;100873.09;5099774;28;20048;-82
2021/07/19 05:15:32;;;;;;;8.45;5.60;;;;;;;20.68;62.42;100871.59;5092170;28;20059;-82
2021/07/19 05:18:00;;;;;;;9.32;6.13;;;;;;;20.78;62.73;100869.34;5083302;28;20048;-82
2021/07/19 05:20:29;;;;;;;7.95;5.95;;;;;;;20.87;61.70;100878.41;5098738;28;20044;-82
2021/07/19 05:22:56;;;;;;;8.52;6.65;;;;;;;20.96;60.16;100876.19;5099227;28;20496;-82
2021/07/19 05:25:28;;;;;;;9.13;6.25;;;;;;;21.01;60.10;100872.22;5098268;28;20052;-82
2021/07/19 05:28:07;;;;;;;9.82;6.72;;;;;;;21.00;59.91;100876.25;5098207;28;20059;-81
2021/07/19 05:30:37;;;;;;;8.55;6.20;;;;;;;21.01;59.78;100870.19;5092076;28;20048;-81
2021/07/19 05:33:04;;;;;;;9.27;6.10;;;;;;;21.15;59.63;100880.16;5099828;28;20052;-81
2021/07/19 05:35:32;;;;;;;10.68;6.43;;;;;;;21.22;59.25;100883.13;5098443;28;20056;-80
2021/07/19 05:37:59;;;;;;;8.75;6.45;;;;;;;21.33;58.82;100869.94;5088872;28;20063;-81
2021/07/19 05:40:29;;;;;;;9.18;6.82;;;;;;;21.43;59.04;100879.88;5079066;28;20059;-82
2021/07/19 05:42:59;;;;;;;9.07;6.38;;;;;;;21.48;58.28;100868.19;5080391;28;20055;-81
2021/07/19 05:45:27;;;;;;;9.63;6.10;;;;;;;21.41;58.61;100868.88;5073652;28;20057;-80
2021/07/19 05:48:02;;;;;;;10.15;6.80;;;;;;;21.39;57.84;100870.47;5081005;28;20044;-82
2021/07/19 05:50:36;;;;;;;9.57;6.50;;;;;;;21.31;57.43;100874.38;5070191;28;20486;-81
2021/07/19 05:53:07;;;;;;;9.90;6.72;;;;;;;21.37;56.73;100885.00;5078970;28;20501;-81
2021/07/19 05:55:36;;;;;;;8.68;6.70;;;;;;;21.41;57.07;100874.53;5073228;28;20049;-81
2021/07/19 05:58:07;;;;;;;9.90;6.88;;;;;;;21.54;56.23;100868.72;5077664;28;20056;-81
2021/07/19 06:00:34;;;;;;;9.30;6.15;;;;;;;21.72;55.44;100872.66;5075967;28;20049;-81
2021/07/19 06:03:02;;;;;;;9.18;6.65;;;;;;;21.81;54.82;100883.72;5068930;28;20535;-82
2021/07/19 06:05:30;;;;;;;8.82;6.55;;;;;;;21.78;54.73;100879.63;5075756;28;20060;-81
2021/07/19 06:07:57;;;;;;;10.60;8.10;;;;;;;21.80;54.93;100882.91;5075563;28;20060;-82
2021/07/19 06:10:26;;;;;;;9.13;6.95;;;;;;;21.93;54.43;100891.22;5075470;28;20060;-82
2021/07/19 06:12:54;;;;;;;10.82;6.47;;;;;;;22.16;54.10;100891.13;5075509;28;20055;-81
2021/07/19 06:15:22;;;;;;;8.27;6.60;;;;;;;22.35;53.17;100896.69;5075851;28;20045;-82
2021/07/19 06:17:50;;;;;;;10.23;6.88;;;;;;;22.44;53.03;100899.25;5074720;28;20055;-82
2021/07/19 06:20:19;;;;;;;9.95;6.63;;;;;;;22.54;52.16;100895.72;5077682;28;20382;-82
2021/07/19 06:22:48;;;;;;;12.40;7.10;;;;;;;22.64;51.95;100903.56;5077233;28;20056;-82
2021/07/19 06:25:16;;;;;;;8.52;6.00;;;;;;;22.42;55.20;100901.66;5055825;28;20055;-74
2021/07/19 06:27:44;;;;;;;8.32;6.40;;;;;;;22.53;52.66;100899.75;5060706;28;20513;-74
2021/07/19 06:30:15;;;;;;;9.00;6.32;;;;;;;22.55;53.92;100905.88;5070592;28;20109;-74
2021/07/19 06:32:42;;;;;;;8.80;6.80;;;;;;;22.37;53.40;100904.84;5073731;28;20048;-74
2021/07/19 06:35:11;;;;;;;10.35;7.57;;;;;;;22.53;52.55;100894.06;5068556;28;20397;-74
2021/07/19 06:37:39;;;;;;;8.52;6.47;;;;;;;22.57;52.64;100897.78;5071910;28;20049;-74
2021/07/19 06:40:10;;;;;;;12.02;6.90;;;;;;;22.43;53.02;100901.28;5092104;28;20044;-74
2021/07/19 06:42:37;;;;;;;10.38;6.88;;;;;;;22.39;52.60;100900.41;5092681;28;20043;-76
2021/07/19 06:45:06;;;;;;;9.75;6.70;;;;;;;22.80;52.14;100891.16;5091798;28;20449;-74
2021/07/19 06:47:35;;;;;;;9.93;6.80;;;;;;;22.48;51.84;100895.25;5074123;28;20075;-74
2021/07/19 06:50:02;;;;;;;9.20;7.13;;;;;;;22.60;51.51;100899.06;5073513;28;20053;-74
2021/07/19 06:52:30;;;;;;;11.63;7.25;;;;;;;22.55;52.34;100891.66;5074539;28;20405;-74
2021/07/19 06:54:57;;;;;;;9.48;6.75;;;;;;;22.69;51.92;100900.38;5089546;28;20469;-74
2021/07/19 06:57:24;;;;;;;9.82;7.68;;;;;;;22.58;51.24;100901.47;5093242;28;20051;-75
2021/07/19 06:59:52;;;;;;;9.13;6.75;;;;;;;22.52;52.07;100900.16;5093346;28;20054;-75
2021/07/19 07:02:19;;;;;;;8.10;7.00;;;;;;;22.57;51.76;100896.97;5092941;28;20404;-76
2021/07/19 07:04:48;;;;;;;9.10;7.00;;;;;;;22.35;52.30;100898.72;5094535;28;20055;-82
2021/07/19 07:07:16;;;;;;;9.80;7.25;;;;;;;22.27;52.67;100886.44;5097630;28;20052;-86
2021/07/19 07:09:43;;;;;;;8.77;6.88;;;;;;;22.56;51.99;100893.31;5095354;28;20059;-84
2021/07/19 07:12:10;;;;;;;10.02;6.97;;;;;;;22.76;51.76;100893.94;5097223;28;20056;-83
2021/07/19 07:14:38;;;;;;;9.68;7.10;;;;;;;22.89;51.08;100900.22;5097365;28;20056;-83
2021/07/19 07:17:05;;;;;;;11.13;7.30;;;;;;;22.89;51.58;100909.53;5089335;28;20097;-84
2021/07/19 07:19:33;;;;;;;8.23;6.82;;;;;;;23.14;50.80;100906.19;5086766;28;20052;-81
2021/07/19 07:22:01;;;;;;;10.77;7.03;;;;;;;23.34;50.21;100897.44;5087728;28;20382;-81
2021/07/19 07:24:29;;;;;;;9.55;7.07;;;;;;;23.63;50.02;100890.78;5092244;28;20098;-81
2021/07/19 07:26:56;;;;;;;11.13;7.65;;;;;;;24.03;48.60;100886.25;5093847;28;20039;-82
2021/07/19 07:29:23;;;;;;;11.20;7.43;;;;;;;24.29;47.69;100888.00;5089629;28;20051;-82
2021/07/19 07:31:51;;;;;;;9.80;8.02;;;;;;;24.42;46.69;100885.66;5095975;28;20421;-81
2021/07/19 07:34:19;;;;;;;9.45;7.80;;;;;;;24.38;45.81;100889.66;5094433;28;20055;-80
2021/07/19 07:36:46;;;;;;;10.13;7.68;;;;;;;24.12;47.69;100888.72;5076075;28;20048;-79
2021/07/19 07:39:15;;;;;;;12.35;8.82;;;;;;;23.87;47.93;100899.94;5094919;28;20052;-80
2021/07/19 07:41:43;;;;;;;9.20;7.22;;;;;;;23.70;48.02;100901.41;5095978;28;20048;-81
2021/07/19 07:44:10;;;;;;;12.10;7.90;;;;;;;23.54;49.44;100898.03;5092509;28;20052;-81
2021/07/19 07:46:39;;;;;;;10.45;8.25;;;;;;;23.48;49.24;100904.09;5097064;28;20063;-81
2021/07/19 07:49:06;;;;;;;12.00;7.75;;;;;;;23.23;50.07;100909.53;5093442;28;20045;-81
2021/07/19 07:51:34;;;;;;;10.50;6.80;;;;;;;23.10;51.08;100900.47;5075903;28;20068;-79
2021/07/19 07:54:01;;;;;;;9.93;7.55;;;;;;;23.20;50.11;100900.97;5091333;28;20048;-83
2021/07/19 07:56:30;;;;;;;12.15;8.65;;;;;;;23.05;50.06;100906.50;5096381;28;20048;-82
2021/07/19 07:58:57;;;;;;;10.43;7.97;;;;;;;22.94;50.40;100905.53;5092645;28;20052;-80
2021/07/19 08:01:24;;;;;;;10.40;7.68;;;;;;;22.99;51.07;100908.00;5094725;28;20048;-78
2021/07/19 08:03:52;;;;;;;11.02;8.20;;;;;;;23.09;49.62;100904.50;5089795;28;20055;-79
2021/07/19 08:06:19;;;;;;;9.68;7.85;;;;;;;23.14;49.47;100906.19;5085829;28;20401;-80
2021/07/19 08:08:46;;;;;;;10.35;7.72;;;;;;;23.24;49.41;100898.97;5095208;28;20445;-79
2021/07/19 08:11:17;;;;;;;10.57;7.90;;;;;;;23.22;49.54;100904.22;5094349;28;20052;-79
2021/07/19 08:13:45;;;;;;;10.10;8.07;;;;;;;23.39;49.86;100902.75;5093876;28;20055;-77
2021/07/19 08:16:16;;;;;;;12.40;8.77;;;;;;;23.57;48.83;100909.44;5093471;28;20048;-78
2021/07/19 08:18:43;;;;;;;10.63;7.70;;;;;;;23.50;49.49;100907.34;5094579;28;20056;-80
2021/07/19 08:21:11;;;;;;;12.38;8.02;;;;;;;23.24;50.09;100904.66;5093166;28;20436;-79
2021/07/19 08:23:38;;;;;;;11.27;8.02;;;;;;;23.23;50.78;100903.84;5085913;28;20051;-82
2021/07/19 08:26:09;;;;;;;12.48;7.97;;;;;;;23.09;50.37;100910.19;5096590;28;20048;-82
2021/07/19 08:28:36;;;;;;;13.77;8.80;;;;;;;22.96;51.18;100917.31;5093038;28;20048;-80
2021/07/19 08:31:05;;;;;;;10.82;8.05;;;;;;;22.86;52.01;100907.47;5094089;28;20044;-80
2021/07/19 08:33:33;;;;;;;11.40;8.10;;;;;;;22.65;52.47;100913.72;5094032;28;20481;-79
2021/07/19 08:36:00;;;;;;;12.15;9.18;;;;;;;22.62;51.85;100914.50;5094789;28;20052;-79
2021/07/19 08:38:28;;;;;;;11.82;8.88;;;;;;;22.58;52.25;100918.50;5084597;28;20103;-79
2021/07/19 08:40:57;;;;;;;11.65;8.35;;;;;;;22.56;52.09;100921.72;5087076;28;20048;-80
2021/07/19 08:43:24;;;;;;;12.07;7.85;;;;;;;22.49;52.52;100933.81;5092838;28;20064;-81
2021/07/19 08:45:52;;;;;;;12.00;8.65;;;;;;;22.37;52.58;100922.69;5094162;28;20044;-79
2021/07/19 08:48:21;;;;;;;10.45;7.60;;;;;;;22.44;52.11;100919.13;5086106;28;20056;-78
2021/07/19 08:50:48;;;;;;;14.75;8.80;;;;;;;22.51;52.10;100916.38;5077546;28;20386;-80
2021/07/19 08:53:19;;;;;;;12.40;9.23;;;;;;;22.61;52.42;100920.56;5080652;28;20052;-80
2021/07/19 08:55:50;;;;;;;13.35;8.65;;;;;;;22.73;51.21;100913.81;5092669;28;20067;-78
2021/07/19 08:58:18;;;;;;;12.00;8.13;;;;;;;22.79;51.53;100918.75;5095751;28;20503;-78
2021/07/19 09:00:45;;;;;;;10.30;7.95;;;;;;;22.95;50.26;100912.88;5096195;28;20052;-79
2021/07/19 09:03:14;;;;;;;13.35;7.35;;;;;;;22.90;50.38;100907.50;5096933;28;20051;-80
2021/07/19 09:05:42;;;;;;;9.77;6.93;;;;;;;23.14;49.75;100908.19;5095382;28;20059;-78
2021/07/19 09:08:10;;;;;;;10.32;6.82;;;;;;;23.28;49.88;100899.81;5097845;28;20055;-81
2021/07/19 09:10:37;;;;;;;11.57;7.07;;;;;;;23.46;48.05;100906.50;5092709;28;20047;-80
2021/07/19 09:13:07;;;;;;;9.55;6.35;;;;;;;23.61;47.37;100900.94;5094497;28;20052;-79
2021/07/19 09:15:37;;;;;;;10.75;6.78;;;;;;;23.76;47.51;100913.25;5095527;28;20060;-79
2021/07/19 09:18:05;;;;;;;10.20;7.20;;;;;;;23.68;46.27;100912.38;5086346;28;20060;-79
2021/07/19 09:20:35;;;;;;;10.15;6.88;;;;;;;23.92;45.79;100913.81;5087951;28;20052;-79
2021/07/19 09:23:06;;;;;;;9.18;6.57;;;;;;;24.22;45.35;100907.09;5095965;28;20150;-80
2021/07/19 09:25:34;;;;;;;9.40;6.85;;;;;;;24.46;44.07;100908.44;5094675;28;20048;-79
2021/07/19 09:28:04;;;;;;;10.65;6.95;;;;;;;24.66;43.72;100901.22;5096799;28;20410;-79
2021/07/19 09:30:33;;;;;;;8.48;6.30;;;;;;;25.07;42.01;100895.25;5095723;28;20528;-79
2021/07/19 09:33:03;;;;;;;8.82;6.90;;;;;;;25.69;40.78;100899.81;5085307;28;20048;-78
2021/07/19 09:35:32;;;;;;;8.25;6.60;;;;;;;26.47;37.39;100900.91;5096613;28;20055;-80
2021/07/19 09:38:05;;;;;;;;;;;;;;;26.89;38.11;100893.38;5093698;28;20461;-80
2021/07/19 09:40:35;;;;;;;7.65;5.95;;;;;;;27.24;36.44;100885.06;5091641;28;20704;-80
2021/07/19 09:43:13;;;;;;;11.13;6.70;;;;;;;27.40;36.52;100881.66;5094197;28;20052;-78
2021/07/19 09:45:41;;;;;;;9.63;7.07;;;;;;;27.40;36.05;100882.44;5095738;28;20044;-80
2021/07/19 09:48:10;;;;;;;7.70;6.28;;;;;;;27.24;36.41;100888.72;5096614;28;20043;-79
2021/07/19 09:50:50;;;;;;;8.65;7.10;;;;;;;27.01;37.74;100883.53;5096792;28;20048;-78
2021/07/19 09:53:28;;;;;;;9.10;6.78;;;;;;;26.88;37.74;100888.09;5097522;28;20059;-79
2021/07/19 09:56:07;;;;;;;9.45;6.80;;;;;;;26.70;37.78;100880.41;5095841;28;20047;-79
2021/07/19 09:58:35;;;;;;;10.18;7.10;;;;;;;26.48;38.23;100878.84;5078293;28;20045;-80
2021/07/19 10:01:02;;;;;;;8.82;7.05;;;;;;;26.20;39.55;100874.88;5089009;28;20052;-78
2021/07/19 10:03:30;;;;;;;10.60;7.63;;;;;;;25.96;39.95;100884.34;5097373;28;20048;-78
2021/07/19 10:06:04;;;;;;;9.07;6.53;;;;;;;26.00;39.46;100879.44;5094931;28;20498;-79
2021/07/19 10:08:32;;;;;;;10.55;6.75;;;;;;;25.78;40.00;100873.72;5095813;28;20056;-79
2021/07/19 10:11:01;;;;;;;9.38;7.32;;;;;;;25.85;39.95;100879.41;5093325;28;20044;-80
2021/07/19 10:13:35;;;;;;;9.27;7.22;;;;;;;25.66;40.15;100871.28;5096600;28;20457;-80
2021/07/19 10:16:04;;;;;;;11.98;8.18;;;;;;;25.23;42.21;100874.13;5090929;28;20059;-81
2021/07/19 10:18:34;;;;;;;9.57;7.30;;;;;;;25.50;40.89;100877.41;5083466;28;20044;-81
2021/07/19 10:21:03;;;;;;;9.70;6.93;;;;;;;25.74;40.59;100875.75;5085124;28;20068;-81
2021/07/19 10:23:30;;;;;;;13.50;7.30;;;;;;;25.89;40.35;100873.72;5096533;28;20066;-81
2021/07/19 10:26:00;;;;;;;9.18;7.45;;;;;;;26.01;39.98;100861.88;5089404;28;20063;-81
2021/07/19 10:28:27;;;;;;;;;;;;;;;26.08;39.63;100864.72;5087664;28;20051;-81
2021/07/19 10:30:56;;;;;;;8.30;7.20;;;;;;;26.37;39.36;100860.94;5091610;28;19921;-81
2021/07/19 10:33:24;;;;;;;9.68;6.72;;;;;;;26.64;38.33;100859.22;5094546;28;20052;-82
2021/07/19 10:35:58;;;;;;;11.45;7.85;;;;;;;26.75;38.43;100846.94;5096992;28;20052;-80
2021/07/19 10:38:29;;;;;;;9.82;7.65;;;;;;;26.70;38.10;100846.13;5094314;28;20048;-82
2021/07/19 10:41:02;;;;;;;9.68;8.07;;;;;;;26.87;37.74;100844.41;5094548;28;20059;-81
2021/07/19 10:43:30;;;;;;;10.13;7.68;;;;;;;27.12;38.16;100852.81;5095961;28;20063;-81
2021/07/19 10:46:08;;;;;;;9.87;7.77;;;;;;;27.19;37.35;100848.28;5094984;28;20512;-81
2021/07/19 10:48:36;;;;;;;10.40;8.07;;;;;;;27.17;36.48;100854.41;5095828;28;20397;-82
2021/07/19 10:51:16;;;;;;;12.98;7.60;;;;;;;27.09;36.63;100859.38;5094596;28;20101;-81
2021/07/19 10:53:46;;;;;;;8.85;7.43;;;;;;;27.00;36.82;100858.22;5095658;28;20040;-81
2021/07/19 10:56:16;;;;;;;9.27;7.50;;;;;;;27.02;36.31;100856.56;5094926;28;20056;-82
2021/07/19 10:58:46;;;;;;;11.57;8.02;;;;;;;26.91;36.63;100855.81;5094718;28;20051;-81
2021/07/19 11:01:26;;;;;;;9.85;7.47;;;;;;;26.59;38.02;100856.81;5095269;28;20488;-81
2021/07/19 11:03:55;;;;;;;10.23;7.93;;;;;;;26.82;38.00;100852.63;5085490;28;20051;-81
2021/07/19 11:06:33;;;;;;;9.65;7.32;;;;;;;27.09;36.90;100845.09;5075961;28;20056;-80
2021/07/19 11:09:01;;;;;;;11.10;7.73;;;;;;;27.12;36.35;100841.38;5075041;28;20059;-79
2021/07/19 11:11:32;;;;;;;11.33;7.97;;;;;;;27.12;37.71;100841.38;5074093;28;20462;-80
2021/07/19 11:14:03;;;;;;;11.75;7.47;;;;;;;27.12;37.04;100849.94;5074612;28;20063;-81
2021/07/19 11:16:41;;;;;;;10.25;7.80;;;;;;;27.11;37.09;100845.47;5075412;28;20572;-84
2021/07/19 11:19:09;;;;;;;9.73;7.22;;;;;;;27.09;36.51;100850.00;5097220;28;20055;-84
2021/07/19 11:21:38;;;;;;;11.13;8.13;;;;;;;27.08;36.95;100843.44;5090761;28;20043;-79
2021/07/19 11:24:15;;;;;;;10.15;7.68;;;;;;;27.64;36.86;100834.03;5091977;28;20052;-80
2021/07/19 11:26:52;;;;;;;10.45;8.07;;;;;;;28.86;34.59;100827.69;5086205;28;20051;-80
2021/07/19 11:29:30;;;;;;;10.68;9.02;;;;;;;29.58;33.23;100835.16;5083249;28;20067;-80
2021/07/19 11:32:19;;;;;;;10.13;8.27;;;;;;;29.19;33.07;100835.81;5084843;28;20071;-78
2021/07/19 11:34:48;;;;;;;12.43;7.22;;;;;;;29.49;32.99;100838.59;5088158;28;20389;-82